»·PEaware :: N74WR KIFP-KGCN

N74WR :: KIFP-KGCN

FLIGHT INFORMATION

Flight Status: Arrived
Operator: Privately registered:
United States
More flights under this callsign
Pilot: Wayne R. (17783)
Aircraft: MOONEY M-20 201 202 205 220 ATS MSE
(M20P)
More flights by this aircraft type
Origin: KIFP Laughlin/Bullhead Intl
United States
Destination: KGCN Grand Canyon Natl Park
United States
More flights between these airports :: More routes between these airports
Route:
File this flight plan on PilotEdge
Remarks:
Altitude:
(Current/Filed)
9,500ft
Speed:
(Current/Filed)
150kts
Departed: 11-Nov-20 12:16 PM
Arrived: 11-Nov-20 01:09 PM
Distance/Time
Traveled:
127nm/0:53
Distance/Time
To Go:
Arrived

Flight Plot

Page will automatically refresh every two minutes.


Map Options




Map Legend


Flown Route
Filed Route
Departure Airport
Arrival Airport
Navaid (VOR, NDB)
Fix

Horizontal Profiles

Position Reports

Time Latitude Longitude Heading Altitude Ground
Speed
11-Nov-20 11:04 35.156338 -114.555971 271 664ft 0kts
11-Nov-20 11:05 35.156338 -114.555971 271 664ft 0kts
11-Nov-20 11:06 35.156338 -114.555971 271 664ft 0kts
11-Nov-20 11:07 35.156338 -114.555971 271 664ft 0kts
11-Nov-20 11:08 35.156338 -114.555971 271 664ft 0kts
11-Nov-20 11:09 35.156338 -114.555971 271 664ft 0kts
11-Nov-20 11:09 35.156338 -114.555971 271 664ft 0kts
11-Nov-20 11:11 35.156338 -114.555971 271 664ft 0kts
11-Nov-20 11:11 35.156338 -114.555971 271 664ft 0kts
11-Nov-20 11:12 35.156338 -114.555971 271 664ft 0kts
11-Nov-20 11:13 35.156338 -114.555971 271 664ft 0kts
11-Nov-20 11:14 35.156338 -114.555971 271 664ft 0kts
11-Nov-20 11:15 35.156338 -114.555971 271 664ft 0kts
11-Nov-20 11:16 35.156338 -114.555971 271 664ft 0kts
11-Nov-20 11:17 35.156338 -114.555971 271 664ft 0kts
11-Nov-20 11:18 35.156338 -114.555971 271 664ft 0kts
11-Nov-20 11:19 35.156338 -114.555971 271 664ft 0kts
11-Nov-20 11:20 35.156338 -114.555971 271 664ft 0kts
11-Nov-20 11:21 35.156338 -114.555971 271 664ft 0kts
11-Nov-20 11:22 35.156338 -114.555971 271 664ft 0kts
11-Nov-20 11:23 35.156338 -114.555971 271 664ft 0kts
11-Nov-20 11:24 35.156338 -114.555971 271 664ft 0kts
11-Nov-20 11:25 35.156338 -114.555971 271 664ft 0kts
11-Nov-20 11:26 35.156338 -114.555971 271 664ft 0kts
11-Nov-20 11:27 35.156338 -114.555971 271 664ft 0kts
11-Nov-20 11:28 35.156338 -114.555971 271 664ft 0kts
11-Nov-20 11:29 35.156338 -114.555971 271 664ft 0kts
11-Nov-20 11:30 35.156338 -114.555971 271 664ft 0kts
11-Nov-20 11:31 35.156338 -114.555971 271 664ft 0kts
11-Nov-20 11:32 35.156338 -114.555971 271 664ft 0kts
11-Nov-20 11:33 35.156338 -114.555971 271 664ft 0kts
11-Nov-20 11:34 35.156338 -114.555971 271 664ft 0kts
11-Nov-20 11:35 35.156338 -114.555971 271 664ft 0kts
11-Nov-20 11:36 35.156338 -114.555971 271 664ft 0kts
11-Nov-20 11:37 35.156338 -114.555971 271 664ft 0kts
11-Nov-20 11:38 35.156338 -114.555971 271 664ft 0kts
11-Nov-20 11:39 35.156338 -114.555971 271 664ft 0kts
11-Nov-20 11:40 35.156338 -114.555971 271 664ft 0kts
11-Nov-20 11:41 35.156338 -114.555971 271 664ft 0kts
11-Nov-20 11:42 35.156338 -114.555971 271 664ft 0kts
11-Nov-20 11:43 35.156338 -114.555971 271 664ft 0kts
11-Nov-20 11:44 35.156338 -114.555971 271 664ft 0kts
11-Nov-20 11:45 35.156338 -114.555971 271 664ft 0kts
11-Nov-20 11:46 35.156338 -114.555971 271 664ft 0kts
11-Nov-20 11:47 35.156338 -114.555971 271 664ft 0kts
11-Nov-20 11:48 35.156338 -114.555971 271 664ft 0kts
11-Nov-20 11:49 35.156338 -114.555971 271 664ft 0kts
11-Nov-20 11:50 35.156338 -114.555971 271 664ft 0kts
11-Nov-20 11:51 35.156338 -114.555971 271 664ft 0kts
11-Nov-20 11:52 35.156338 -114.555971 271 664ft 0kts
11-Nov-20 11:53 35.156338 -114.555971 271 664ft 0kts
11-Nov-20 11:54 35.156338 -114.555971 271 664ft 0kts
11-Nov-20 11:55 35.156338 -114.555971 271 664ft 0kts
11-Nov-20 11:56 35.156338 -114.555971 271 664ft 0kts
11-Nov-20 11:57 35.156338 -114.555971 271 664ft 0kts
11-Nov-20 11:58 35.156338 -114.555971 271 664ft 0kts
11-Nov-20 11:59 35.156338 -114.555971 271 664ft 0kts
11-Nov-20 12:00 35.156338 -114.555971 271 664ft 0kts
11-Nov-20 12:01 35.156338 -114.555971 271 664ft 0kts
11-Nov-20 12:02 35.156338 -114.555971 271 664ft 0kts
11-Nov-20 12:03 35.156338 -114.555971 271 664ft 0kts
11-Nov-20 12:04 35.156338 -114.555971 271 664ft 0kts
11-Nov-20 12:05 35.156338 -114.555971 271 664ft 0kts
11-Nov-20 12:06 35.156338 -114.555971 271 664ft 0kts
11-Nov-20 12:07 35.156338 -114.555971 271 664ft 0kts
11-Nov-20 12:08 35.156338 -114.555971 271 664ft 0kts
11-Nov-20 12:09 35.156338 -114.555971 271 664ft 0kts
11-Nov-20 12:10 35.156339 -114.555971 271 664ft 0kts
11-Nov-20 12:11 35.154706 -114.557978 175 669ft 29kts
11-Nov-20 12:12 35.146678 -114.557371 175 697ft 20kts
11-Nov-20 12:13 35.146026 -114.557336 179 699ft 16kts
11-Nov-20 12:14 35.143199 -114.558277 301 708ft 14kts
11-Nov-20 12:15 35.154576 -114.556588 55 1117ft 76kts
11-Nov-20 12:16 35.161896 -114.527197 74 1994ft 104kts
11-Nov-20 12:17 35.171197 -114.496423 55 3181ft 82kts
11-Nov-20 12:18 35.191829 -114.469263 46 3809ft 119kts
11-Nov-20 12:19 35.205934 -114.430794 64 4543ft 128kts
11-Nov-20 12:20 35.223807 -114.393349 54 5138ft 128kts
11-Nov-20 12:21 35.243627 -114.354693 63 5438ft 141kts
11-Nov-20 12:22 35.256834 -114.309230 67 5739ft 141kts
11-Nov-20 12:23 35.271557 -114.260554 66 6243ft 157kts
11-Nov-20 12:24 35.287445 -114.210090 66 6764ft 159kts
11-Nov-20 12:25 35.303778 -114.159836 65 7256ft 158kts
11-Nov-20 12:26 35.321203 -114.108129 64 7780ft 166kts
11-Nov-20 12:27 35.333044 -114.052764 75 8333ft 169kts
11-Nov-20 12:28 35.342666 -113.996919 75 8881ft 168kts
11-Nov-20 12:29 35.352800 -113.940812 74 9419ft 168kts
11-Nov-20 12:30 35.363799 -113.883032 74 9606ft 180kts
11-Nov-20 12:31 35.377678 -113.822353 69 9611ft 188kts
11-Nov-20 12:32 35.394345 -113.761132 69 9606ft 189kts
11-Nov-20 12:33 35.411188 -113.700585 68 9614ft 187kts
11-Nov-20 12:34 35.428006 -113.641378 68 9605ft 179kts
11-Nov-20 12:35 35.444617 -113.584180 68 9610ft 178kts
11-Nov-20 12:36 35.461591 -113.527124 67 9572ft 180kts
11-Nov-20 12:37 35.479134 -113.469520 67 9079ft 182kts
11-Nov-20 12:38 35.497420 -113.410772 67 8572ft 185kts
11-Nov-20 12:39 35.516120 -113.351868 66 8070ft 185kts
11-Nov-20 12:41 35.535090 -113.293175 66 7662ft 182kts
11-Nov-20 12:42 35.553427 -113.237287 65 7612ft 172kts
11-Nov-20 12:43 35.571471 -113.183312 65 7610ft 170kts
11-Nov-20 12:44 35.590508 -113.127784 65 7611ft 180kts
11-Nov-20 12:45 35.610477 -113.070829 64 7609ft 182kts
11-Nov-20 12:46 35.630985 -113.013482 64 7609ft 183kts
11-Nov-20 12:47 35.651754 -112.956498 65 7609ft 182kts
11-Nov-20 12:48 35.672485 -112.900688 65 7609ft 176kts
11-Nov-20 12:49 35.693107 -112.846148 64 7611ft 175kts
11-Nov-20 12:50 35.711922 -112.797224 64 7604ft 140kts
11-Nov-20 12:51 35.728676 -112.754879 63 7627ft 147kts
11-Nov-20 12:52 35.747974 -112.707625 61 7611ft 158kts
11-Nov-20 12:53 35.767933 -112.659804 62 7605ft 154kts
11-Nov-20 12:53 35.784322 -112.621510 63 7609ft 151kts
11-Nov-20 12:55 35.807721 -112.568261 63 7612ft 151kts
11-Nov-20 12:56 35.821450 -112.519543 78 7610ft 151kts
11-Nov-20 12:57 35.830215 -112.468790 75 7612ft 151kts
11-Nov-20 12:57 35.837793 -112.426907 75 7625ft 148kts
11-Nov-20 12:59 35.853725 -112.372642 58 7840ft 143kts
11-Nov-20 12:59 35.872056 -112.338074 55 7791ft 148kts
11-Nov-20 13:01 35.906696 -112.300653 22 7633ft 139kts
11-Nov-20 13:01 35.931448 -112.279471 39 7442ft 124kts
11-Nov-20 13:02 35.953614 -112.251296 44 7175ft 104kts
11-Nov-20 13:03 35.966159 -112.217743 74 6950ft 107kts
11-Nov-20 13:04 35.978435 -112.183469 67 7027ft 108kts
11-Nov-20 13:05 35.986146 -112.149119 96 7219ft 107kts
11-Nov-20 13:06 35.968057 -112.130882 223 6930ft 105kts
11-Nov-20 13:07 35.950218 -112.149290 220 6567ft 44kts
11-Nov-20 13:08 35.947313 -112.150551 59 6557ft 18kts
11-Nov-20 13:09 35.952692 -112.144821 40 6578ft 29kts
11-Nov-20 13:10 35.954295 -112.142060 320 6586ft 0kts
11-Nov-20 13:11 35.954295 -112.142060 320 6586ft 0kts
11-Nov-20 13:12 35.954295 -112.142060 320 6586ft 0kts

Navigation Log

Ident Type
Flight plan parsing failed, navigation log unavailable